Time;durP1;ratioP1;P1;durP2;ratioP2;P2;SDS_P1;SDS_P2;PMS_P1;PMS_P2;Temp;Humidity;BMP_temperature;BMP_pressure;BME280_temperature;BME280_humidity;BME280_pressure;Samples;Min_cycle;Max_cycle;Signal;HPM_P1;HPM_P2
2023/08/10 00:01:18;;;;;;;4.68;2.15;;;14.40;99.90;;;;;;5026698;28;20497;-53
2023/08/10 00:03:44;;;;;;;7.63;3.03;;;14.30;99.90;;;;;;5028717;28;20030;-49
2023/08/10 00:06:10;;;;;;;8.07;2.58;;;14.20;99.90;;;;;;5033236;28;20021;-51
2023/08/10 00:08:36;;;;;;;9.95;2.90;;;14.20;99.90;;;;;;5023876;28;20143;-54
2023/08/10 00:11:02;;;;;;;7.25;2.50;;;14.10;99.90;;;;;;5030880;28;20100;-48
2023/08/10 00:13:27;;;;;;;6.63;2.50;;;14.10;99.90;;;;;;5047629;28;20087;-50
2023/08/10 00:15:53;;;;;;;4.57;2.70;;;14.10;99.90;;;;;;5033019;28;20666;-50
2023/08/10 00:18:19;;;;;;;6.15;2.42;;;14.00;99.90;;;;;;5029884;28;20025;-50
2023/08/10 00:20:44;;;;;;;7.18;2.40;;;14.00;99.90;;;;;;5030983;28;20029;-49
2023/08/10 00:23:11;;;;;;;8.80;2.70;;;14.00;99.90;;;;;;5030614;28;20539;-51
2023/08/10 00:25:36;;;;;;;8.10;2.63;;;13.90;99.90;;;;;;5027172;28;20493;-49
2023/08/10 00:28:02;;;;;;;11.38;3.05;;;13.90;99.90;;;;;;5026001;28;20030;-50
2023/08/10 00:30:28;;;;;;;9.13;3.13;;;13.90;99.90;;;;;;5030808;28;20021;-53
2023/08/10 00:32:54;;;;;;;6.72;2.08;;;13.90;99.90;;;;;;5028610;28;20505;-52
2023/08/10 00:35:20;;;;;;;7.18;2.78;;;13.90;99.90;;;;;;5029094;28;20025;-52
2023/08/10 00:37:46;;;;;;;5.25;2.03;;;13.90;99.90;;;;;;5028560;28;20604;-50
2023/08/10 00:40:12;;;;;;;5.75;2.75;;;13.90;99.90;;;;;;5036257;28;20555;-59
2023/08/10 00:42:39;;;;;;;5.57;2.28;;;13.90;99.90;;;;;;5031316;28;20112;-54
2023/08/10 00:45:05;;;;;;;9.05;2.53;;;13.80;99.90;;;;;;5027003;28;20029;-52
2023/08/10 00:47:31;;;;;;;10.05;3.13;;;13.70;99.90;;;;;;5033083;28;20104;-51
2023/08/10 00:49:57;;;;;;;10.60;2.72;;;13.70;99.90;;;;;;5035924;28;20024;-52
2023/08/10 00:52:22;;;;;;;6.55;2.53;;;13.70;99.90;;;;;;5028939;28;20056;-57
2023/08/10 00:54:48;;;;;;;9.80;3.03;;;13.60;99.90;;;;;;5032292;28;20059;-50
2023/08/10 00:57:14;;;;;;;13.55;2.90;;;13.60;99.90;;;;;;5037541;28;20029;-48
2023/08/10 00:59:40;;;;;;;5.90;2.83;;;13.60;99.90;;;;;;5030361;28;20496;-50
2023/08/10 01:02:06;;;;;;;9.02;3.03;;;13.50;99.90;;;;;;5034318;28;20029;-51
2023/08/10 01:04:32;;;;;;;8.57;2.60;;;13.60;99.90;;;;;;5034035;28;20022;-52
2023/08/10 01:07:19;;;;;;;8.95;2.38;;;13.50;99.90;;;;;;5033239;28;20168;-51
2023/08/10 01:10:05;;;;;;;7.05;2.20;;;13.50;99.90;;;;;;5031687;28;20110;-53
2023/08/10 01:12:49;;;;;;;6.25;2.55;;;13.60;99.90;;;;;;5028146;28;20037;-50
2023/08/10 01:15:30;;;;;;;9.77;2.95;;;13.60;99.90;;;;;;5030767;28;20060;-52
2023/08/10 01:17:59;;;;;;;4.40;2.50;;;13.60;99.90;;;;;;5031960;28;20117;-53
2023/08/10 01:20:27;;;;;;;7.60;2.50;;;13.70;99.90;;;;;;5032011;28;20057;-50
2023/08/10 01:23:13;;;;;;;4.50;2.35;;;13.70;99.90;;;;;;5031485;28;20029;-52
2023/08/10 01:25:42;;;;;;;10.52;2.80;;;13.70;99.90;;;;;;5036131;28;21509;-50
2023/08/10 01:28:09;;;;;;;9.82;3.13;;;13.80;99.90;;;;;;5032449;28;20041;-55
2023/08/10 01:30:35;;;;;;;6.15;2.63;;;13.70;99.90;;;;;;5032486;28;20043;-53
2023/08/10 01:33:01;;;;;;;13.77;2.75;;;13.80;99.90;;;;;;5034161;28;20140;-55
2023/08/10 01:35:27;;;;;;;8.82;3.42;;;13.80;99.90;;;;;;5030923;28;20037;-56
2023/08/10 01:37:52;;;;;;;5.45;2.83;;;13.80;99.90;;;;;;5028035;28;20041;-51
2023/08/10 01:40:18;;;;;;;5.20;2.53;;;13.80;99.90;;;;;;5035186;28;20040;-51
2023/08/10 01:42:44;;;;;;;11.65;3.00;;;13.80;99.90;;;;;;5034420;28;20068;-52
2023/08/10 01:45:10;;;;;;;5.28;2.53;;;13.80;99.90;;;;;;5033490;28;20053;-58
2023/08/10 01:48:00;;;;;;;7.20;2.90;;;13.80;99.90;;;;;;5033114;28;20061;-51
2023/08/10 01:50:28;;;;;;;4.00;2.40;;;13.80;99.90;;;;;;5035139;28;20032;-52
2023/08/10 01:53:05;;;;;;;8.68;3.15;;;13.90;99.90;;;;;;5033831;28;20417;-52
2023/08/10 01:55:31;;;;;;;9.45;2.90;;;14.00;99.90;;;;;;5035183;28;20493;-53
2023/08/10 01:57:57;;;;;;;4.55;2.90;;;14.00;99.90;;;;;;5032615;28;20080;-58
2023/08/10 02:00:22;;;;;;;9.60;2.60;;;14.00;99.90;;;;;;5031834;28;20045;-54
2023/08/10 02:02:48;;;;;;;6.40;2.58;;;14.00;99.90;;;;;;5034738;28;20052;-56
2023/08/10 02:05:13;;;;;;;14.23;2.42;;;14.00;99.90;;;;;;5032180;28;20064;-51
2023/08/10 02:07:41;;;;;;;10.23;2.85;;;14.00;99.90;;;;;;5035341;28;20045;-51
2023/08/10 02:10:07;;;;;;;10.23;3.17;;;14.00;99.90;;;;;;5036608;28;20048;-57
2023/08/10 02:12:33;;;;;;;4.78;2.53;;;14.10;99.90;;;;;;5035312;28;20036;-51
2023/08/10 02:14:59;;;;;;;7.63;2.88;;;14.10;99.90;;;;;;5031739;28;20025;-52
2023/08/10 02:17:35;;;;;;;8.02;2.92;;;14.10;99.90;;;;;;5031127;28;20068;-52
2023/08/10 02:20:04;;;;;;;9.38;2.75;;;14.10;99.90;;;;;;5029171;28;20022;-50
2023/08/10 02:22:30;;;;;;;14.30;3.20;;;14.00;99.90;;;;;;5033822;28;20041;-50
2023/08/10 02:24:55;;;;;;;13.57;2.90;;;14.00;99.90;;;;;;5046899;28;20040;-53
2023/08/10 02:27:21;;;;;;;8.57;3.42;;;13.90;99.90;;;;;;5036767;28;20021;-49
2023/08/10 02:29:46;;;;;;;8.30;3.00;;;13.80;99.90;;;;;;5030556;28;21854;-50
2023/08/10 02:32:16;;;;;;;9.65;2.40;;;13.80;99.90;;;;;;5032287;28;20401;-52
2023/08/10 02:34:42;;;;;;;9.60;2.92;;;13.70;99.90;;;;;;5034390;28;20111;-50
2023/08/10 02:37:08;;;;;;;6.45;3.00;;;13.60;99.90;;;;;;5029875;28;20083;-49
2023/08/10 02:39:33;;;;;;;8.57;3.00;;;13.50;99.90;;;;;;5028899;28;20026;-52
2023/08/10 02:41:59;;;;;;;11.90;3.17;;;13.40;99.90;;;;;;5034886;28;20027;-50
2023/08/10 02:44:24;;;;;;;8.88;3.00;;;13.40;99.90;;;;;;5031823;28;20058;-52
2023/08/10 02:46:50;;;;;;;6.75;3.20;;;13.30;99.90;;;;;;5031265;28;20021;-49
2023/08/10 02:49:16;;;;;;;6.18;3.08;;;13.30;99.90;;;;;;5032763;28;20504;-53
2023/08/10 02:51:42;;;;;;;11.13;3.00;;;13.30;99.90;;;;;;5031313;28;20040;-51
2023/08/10 02:54:07;;;;;;;7.97;3.70;;;13.20;99.90;;;;;;5031787;28;20030;-51
2023/08/10 02:56:33;;;;;;;9.30;3.55;;;13.10;99.90;;;;;;5031269;28;20059;-55
2023/08/10 02:58:58;;;;;;;6.22;3.17;;;13.10;99.90;;;;;;5032589;28;20029;-50
2023/08/10 03:01:24;;;;;;;10.00;3.42;;;13.10;99.90;;;;;;5026853;28;20397;-50
2023/08/10 03:03:49;;;;;;;4.40;2.58;;;13.00;99.90;;;;;;5031149;28;20014;-52
2023/08/10 03:06:15;;;;;;;5.97;3.05;;;12.90;99.90;;;;;;5032949;28;20397;-51
2023/08/10 03:08:40;;;;;;;8.48;3.78;;;12.90;99.90;;;;;;5033234;28;20504;-55
2023/08/10 03:11:06;;;;;;;8.95;3.13;;;;;;;;;;5030263;28;20117;-58
2023/08/10 03:13:32;;;;;;;11.68;3.50;;;;;;;;;;5031102;28;20100;-52
2023/08/10 03:15:58;;;;;;;18.58;3.25;;;;;;;;;;5029798;28;20033;-55
2023/08/10 03:18:24;;;;;;;11.32;3.63;;;;;;;;;;5032527;28;20596;-51
2023/08/10 03:20:50;;;;;;;10.52;2.80;;;;;;;;;;5029761;28;20553;-50
2023/08/10 03:23:16;;;;;;;5.85;2.92;;;;;;;;;;5030586;28;20385;-50
2023/08/10 03:25:42;;;;;;;7.35;3.17;;;;;;;;;;5028558;28;20037;-49
2023/08/10 03:28:08;;;;;;;11.15;3.30;;;;;;;;;;5033019;28;20013;-48
2023/08/10 03:30:36;;;;;;;8.77;3.35;;;;;;;;;;5027000;28;20033;-54
2023/08/10 03:33:02;;;;;;;6.18;3.42;;;;;;;;;;5033109;28;20032;-50
2023/08/10 03:35:28;;;;;;;8.50;3.20;;;;;;;;;;5033617;28;20038;-54
2023/08/10 03:37:54;;;;;;;10.70;3.47;;;;;;;;;;5030364;28;20048;-51
2023/08/10 03:40:20;;;;;;;6.78;2.97;;;;;;;;;;5028693;28;20030;-55
2023/08/10 03:42:46;;;;;;;10.88;3.40;;;;;;;;;;5033462;28;20493;-54
2023/08/10 03:45:12;;;;;;;7.47;3.67;;;;;;;;;;5029144;28;20033;-56
2023/08/10 03:47:38;;;;;;;5.25;2.90;;;;;;;;;;5031073;28;20393;-53
2023/08/10 03:50:04;;;;;;;9.73;2.90;;;;;;;;;;5028480;28;20104;-52
2023/08/10 03:52:30;;;;;;;7.05;3.50;;;;;;;;;;5027224;28;20041;-53
2023/08/10 03:54:56;;;;;;;7.97;3.75;;;;;;;;;;5027727;28;20029;-51
2023/08/10 03:57:22;;;;;;;5.25;3.30;;;;;;;;;;5029399;28;20037;-55
2023/08/10 03:59:48;;;;;;;5.00;3.35;;;;;;;;;;5031893;28;20029;-49
2023/08/10 04:02:14;;;;;;;10.02;3.20;;;;;;;;;;5032789;28;20045;-51
2023/08/10 04:04:39;;;;;;;11.30;3.47;;;12.70;99.90;;;;;;5027951;28;20039;-53
2023/08/10 04:07:07;;;;;;;9.65;3.47;;;12.40;99.90;;;;;;5027181;28;20030;-58
2023/08/10 04:09:33;;;;;;;9.35;3.60;;;12.30;99.90;;;;;;5027207;28;20032;-52
2023/08/10 04:11:59;;;;;;;10.63;3.00;;;12.30;99.90;;;;;;5029352;28;20026;-52
2023/08/10 04:14:25;;;;;;;9.68;3.63;;;12.30;99.90;;;;;;5030698;28;20527;-50
2023/08/10 04:16:51;;;;;;;9.68;3.45;;;12.30;99.90;;;;;;5027673;28;20022;-60
2023/08/10 04:19:17;;;;;;;10.85;3.38;;;12.20;99.90;;;;;;5034745;28;20091;-52
2023/08/10 04:21:44;;;;;;;14.98;4.30;;;12.30;99.90;;;;;;5025402;28;20077;-54
2023/08/10 04:24:10;;;;;;;12.18;3.63;;;12.30;99.90;;;;;;5028567;28;20105;-53
2023/08/10 04:26:36;;;;;;;6.00;3.05;;;12.30;99.90;;;;;;5027782;28;20556;-59
2023/08/10 04:29:03;;;;;;;9.45;3.38;;;12.30;99.90;;;;;;5029763;28;20029;-54
2023/08/10 04:31:28;;;;;;;14.77;3.53;;;12.20;99.90;;;;;;5032733;28;20555;-54
2023/08/10 04:33:54;;;;;;;4.75;3.10;;;12.20;99.90;;;;;;5036785;28;20029;-52
2023/08/10 04:36:19;;;;;;;10.23;3.42;;;12.30;99.90;;;;;;5038478;28;20382;-50
2023/08/10 04:38:45;;;;;;;12.27;3.60;;;12.30;99.90;;;;;;5035671;28;20123;-60
2023/08/10 04:41:10;;;;;;;7.53;3.38;;;12.30;99.90;;;;;;5033824;28;20052;-59
2023/08/10 04:43:36;;;;;;;6.82;3.63;;;12.30;99.90;;;;;;5037695;28;20067;-50
2023/08/10 04:46:02;;;;;;;7.10;3.20;;;12.30;99.90;;;;;;5039289;28;20017;-51
2023/08/10 04:48:27;;;;;;;10.93;3.55;;;12.30;99.90;;;;;;5034852;28;20022;-50
2023/08/10 04:50:53;;;;;;;8.55;3.50;;;12.30;99.90;;;;;;5032673;28;20025;-56
2023/08/10 04:53:19;;;;;;;14.05;3.38;;;;;;;;;;5035804;28;20025;-50
2023/08/10 04:55:45;;;;;;;7.43;3.40;;;;;;;;;;5038873;28;20080;-49
2023/08/10 04:58:11;;;;;;;15.82;4.53;;;;;;;;;;5036565;28;20029;-50
2023/08/10 05:00:36;;;;;;;8.77;3.45;;;;;;;;;;5032798;28;20033;-51
2023/08/10 05:03:04;;;;;;;13.13;4.40;;;;;;;;;;5035824;28;20079;-56
2023/08/10 05:05:30;;;;;;;9.82;4.00;;;;;;;;;;5035218;28;20021;-54
2023/08/10 05:07:55;;;;;;;10.32;3.45;;;;;;;;;;5032320;28;20018;-53
2023/08/10 05:10:21;;;;;;;8.45;3.97;;;;;;;;;;5047472;28;20031;-58
2023/08/10 05:12:48;;;;;;;13.15;4.20;;;;;;;;;;5037958;28;20120;-55
2023/08/10 05:15:14;;;;;;;8.48;4.07;;;;;;;;;;5037774;28;20029;-51
2023/08/10 05:17:41;;;;;;;8.52;3.72;;;;;;;;;;5043494;28;20037;-56
2023/08/10 05:20:10;;;;;;;6.60;3.72;;;;;;;;;;5030613;28;20033;-58
2023/08/10 05:22:37;;;;;;;14.27;4.25;;;;;;;;;;5034024;28;20171;-56
2023/08/10 05:25:05;;;;;;;11.05;4.32;;;;;;;;;;5037315;28;20046;-57
2023/08/10 05:27:31;;;;;;;17.27;4.30;;;;;;;;;;5036598;28;20091;-55
2023/08/10 05:29:57;;;;;;;10.30;3.38;;;;;;;;;;5035508;28;20505;-57
2023/08/10 05:32:23;;;;;;;7.75;2.97;;;;;;;;;;5038013;28;20041;-55
2023/08/10 05:34:49;;;;;;;6.22;3.03;;;;;;;;;;5032095;28;20029;-54
2023/08/10 05:37:15;;;;;;;6.93;3.33;;;;;;;;;;5035238;28;20412;-55
2023/08/10 05:39:41;;;;;;;10.43;4.30;;;;;;;;;;5033495;28;20021;-52
2023/08/10 05:42:07;;;;;;;8.65;3.90;;;;;;;;;;5034447;28;20438;-52
2023/08/10 05:44:33;;;;;;;7.53;4.10;;;;;;;;;;5034183;28;20025;-54
2023/08/10 05:46:59;;;;;;;12.18;4.28;;;;;;;;;;5035301;28;20095;-56
2023/08/10 05:49:25;;;;;;;5.60;3.15;;;;;;;;;;5033770;28;20040;-56
2023/08/10 05:51:51;;;;;;;5.28;3.13;;;;;;;;;;5038819;28;20116;-56
2023/08/10 05:54:17;;;;;;;8.07;2.92;;;;;;;;;;5036797;28;20028;-57
2023/08/10 05:56:43;;;;;;;7.60;3.10;;;;;;;;;;5033218;28;20030;-54
2023/08/10 05:59:09;;;;;;;11.35;2.88;;;;;;;;;;5039687;28;20029;-57
2023/08/10 06:01:35;;;;;;;9.10;3.13;;;;;;;;;;5030364;28;20094;-54
2023/08/10 06:04:02;;;;;;;11.48;3.22;;;;;;;;;;5040499;28;20025;-55
2023/08/10 06:06:29;;;;;;;10.55;3.03;;;;;;;;;;5031341;28;20079;-57
2023/08/10 06:08:55;;;;;;;11.70;3.22;;;;;;;;;;5035543;28;20029;-58
2023/08/10 06:11:21;;;;;;;6.32;2.75;;;;;;;;;;5036433;28;20029;-56
2023/08/10 06:13:47;;;;;;;7.15;3.63;;;;;;;;;;5037551;28;20025;-56
2023/08/10 06:16:13;;;;;;;11.63;3.15;;;;;;;;;;5028583;28;20044;-53
2023/08/10 06:18:39;;;;;;;10.15;2.47;;;;;;;;;;5035179;28;20029;-52
2023/08/10 06:21:05;;;;;;;5.57;2.80;;;;;;;;;;5031322;28;20036;-50
2023/08/10 06:23:31;;;;;;;7.57;3.58;;;;;;;;;;5032502;28;20031;-53
2023/08/10 06:25:57;;;;;;;7.47;2.30;;;;;;;;;;5037249;28;20021;-57
2023/08/10 06:28:23;;;;;;;11.35;3.47;;;;;;;;;;5032713;28;20075;-56
2023/08/10 06:30:50;;;;;;;5.40;2.55;;;;;;;;;;5027708;28;20484;-54
2023/08/10 06:33:16;;;;;;;8.55;2.53;;;;;;;;;;5027378;28;20017;-55
2023/08/10 06:35:42;;;;;;;7.95;2.72;;;;;;;;;;5028832;28;20473;-58
2023/08/10 06:38:08;;;;;;;8.30;2.47;;;;;;;;;;5032308;28;20519;-56
2023/08/10 06:40:34;;;;;;;5.05;2.25;;;;;;;;;;5023917;28;20500;-57
2023/08/10 06:43:00;;;;;;;5.35;2.42;;;;;;;;;;5032879;28;20034;-57
2023/08/10 06:45:26;;;;;;;9.32;2.40;;;;;;;;;;5034420;28;20044;-56
2023/08/10 06:47:52;;;;;;;5.05;1.88;;;;;;;;;;5033001;28;20033;-59
2023/08/10 06:50:18;;;;;;;9.23;2.20;;;;;;;;;;5034990;28;20036;-59
2023/08/10 06:52:45;;;;;;;5.13;1.83;;;;;;;;;;5032895;28;20033;-56
2023/08/10 06:55:14;;;;;;;17.92;2.05;;;;;;;;;;5030675;28;20021;-59
2023/08/10 06:57:40;;;;;;;8.15;2.00;;;;;;;;;;5023957;28;20678;-55
2023/08/10 07:00:07;;;;;;;7.80;2.10;;;;;;;;;;5026862;28;20113;-56
2023/08/10 07:02:33;;;;;;;5.38;1.60;;;;;;;;;;5037408;28;20116;-56
2023/08/10 07:04:59;;;;;;;5.57;2.05;;;;;;;;;;5030016;28;20032;-56
2023/08/10 07:07:25;;;;;;;7.20;2.17;;;;;;;;;;5030855;28;20025;-54
2023/08/10 07:09:51;;;;;;;9.80;2.22;;;;;;;;;;5029039;28;20105;-56
2023/08/10 07:12:17;;;;;;;12.80;2.00;;;;;;;;;;5029430;28;20033;-57
2023/08/10 07:14:43;;;;;;;4.40;1.63;;;;;;;;;;5031267;28;20040;-58
2023/08/10 07:17:09;;;;;;;13.30;1.50;;;;;;;;;;5023343;28;20109;-55
2023/08/10 07:19:36;;;;;;;6.85;1.63;;;;;;;;;;5028493;28;20104;-57
2023/08/10 07:22:02;;;;;;;7.78;1.52;;;;;;;;;;5028180;28;20048;-57
2023/08/10 07:24:28;;;;;;;8.90;1.65;;;;;;;;;;5024609;28;20026;-58
2023/08/10 07:26:54;;;;;;;4.93;1.77;;;;;;;;;;5029057;28;20037;-56
2023/08/10 07:29:20;;;;;;;5.63;1.58;;;;;;;;;;5042833;28;20117;-55
2023/08/10 07:31:47;;;;;;;4.65;1.45;;;;;;;;;;5029917;28;20475;-58
2023/08/10 07:34:13;;;;;;;7.68;1.90;;;;;;;;;;5035098;28;20035;-55
2023/08/10 07:36:39;;;;;;;2.17;1.23;;;;;;;;;;5032279;28;20033;-56
2023/08/10 07:39:05;;;;;;;4.13;1.30;;;;;;;;;;5030900;28;20029;-57
2023/08/10 07:41:31;;;;;;;4.65;1.70;;;;;;;;;;5033375;28;20026;-57
2023/08/10 07:43:57;;;;;;;8.27;1.80;;;;;;;;;;5029821;28;20504;-53
2023/08/10 07:46:23;;;;;;;3.47;1.70;;;;;;;;;;5036419;28;20456;-53
2023/08/10 07:48:48;;;;;;;3.17;1.45;;;;;;;;;;5032431;28;20032;-59
2023/08/10 07:51:14;;;;;;;2.08;1.30;;;;;;;;;;5029920;28;20033;-57
2023/08/10 07:53:40;;;;;;;2.95;1.13;;;;;;;;;;5029058;28;20053;-56
2023/08/10 07:56:06;;;;;;;6.93;1.30;;;;;;;;;;5025655;28;20029;-55
2023/08/10 07:58:32;;;;;;;4.28;1.27;;;;;;;;;;5030226;28;20033;-55
2023/08/10 08:00:58;;;;;;;4.18;1.17;;;;;;;;;;5026031;28;20048;-55
2023/08/10 08:03:24;;;;;;;6.53;1.20;;;;;;;;;;5028364;28;20029;-57
2023/08/10 08:05:50;;;;;;;4.72;1.33;;;;;;;;;;5024072;28;20023;-57
2023/08/10 08:08:16;;;;;;;5.25;1.02;;;;;;;;;;5026186;28;20025;-57
2023/08/10 08:10:44;;;;;;;4.30;1.10;;;;;;;;;;5027511;28;20033;-58
2023/08/10 08:13:09;;;;;;;4.95;1.27;;;;;;;;;;5032252;28;20043;-58
2023/08/10 08:15:38;;;;;;;5.07;1.13;;;;;;;;;;5029090;28;20033;-58
2023/08/10 08:18:23;;;;;;;3.05;1.20;;;;;;;;;;5029709;28;20124;-58
2023/08/10 08:20:49;;;;;;;2.72;1.10;;;;;;;;;;5029758;28;20053;-59
2023/08/10 08:23:14;;;;;;;5.03;1.58;;;;;;;;;;5028743;28;20068;-57
2023/08/10 08:25:40;;;;;;;5.78;0.98;;;;;;;;;;5034891;28;20025;-58
2023/08/10 08:28:06;;;;;;;3.53;1.17;;;;;;;;;;5033062;28;20093;-60
2023/08/10 08:30:32;;;;;;;2.83;0.88;;;;;;;;;;5029292;28;20030;-59
2023/08/10 08:32:58;;;;;;;4.90;0.85;;;;;;;;;;5034396;28;20040;-52
2023/08/10 08:35:26;;;;;;;2.33;1.23;;;;;;;;;;5034084;28;20036;-55
2023/08/10 08:37:52;;;;;;;8.32;1.40;;;;;;;;;;5031535;28;20068;-54
2023/08/10 08:40:18;;;;;;;6.25;1.00;;;;;;;;;;5031337;28;20112;-53
2023/08/10 08:42:44;;;;;;;3.40;1.08;;;;;;;;;;5026580;28;20045;-60
2023/08/10 08:45:11;;;;;;;3.47;1.20;;;;;;;;;;5032557;28;20079;-57
2023/08/10 08:47:37;;;;;;;1.60;1.00;;;;;;;;;;5029544;28;20065;-59
2023/08/10 08:50:03;;;;;;;2.50;1.00;;;;;;;;;;5022901;28;20049;-58
2023/08/10 08:52:29;;;;;;;1.02;0.77;;;;;;;;;;5030644;28;20450;-56
2023/08/10 08:54:56;;;;;;;3.40;0.88;;;;;;;;;;5033154;28;20461;-58
2023/08/10 08:57:22;;;;;;;3.22;1.10;;;;;;;;;;5032060;28;20108;-56
2023/08/10 08:59:48;;;;;;;2.85;1.17;;;;;;;;;;5032666;28;20537;-59
2023/08/10 09:02:15;;;;;;;4.40;1.30;;;;;;;;;;5034381;28;20033;-58
2023/08/10 09:04:41;;;;;;;1.95;1.00;;;;;;;;;;5034680;28;20104;-59
2023/08/10 09:07:07;;;;;;;2.95;0.98;;;;;;;;;;5030107;28;20100;-59
2023/08/10 09:09:33;;;;;;;3.05;1.13;;;;;;;;;;5026524;28;20032;-57
2023/08/10 09:12:19;;;;;;;5.32;1.20;;;;;;;;;;5035075;28;20065;-60
2023/08/10 09:15:01;;;;;;;5.05;0.90;;;;;;;;;;5036598;28;20049;-55
2023/08/10 09:17:27;;;;;;;5.18;1.45;;;;;;;;;;5033086;28;20025;-59
2023/08/10 09:19:54;;;;;;;3.03;0.93;;;;;;;;;;5029428;28;20039;-57
2023/08/10 09:22:33;;;;;;;1.88;1.38;;;;;;;;;;5039893;28;20033;-57
2023/08/10 09:24:59;;;;;;;3.90;1.75;;;;;;;;;;5048476;28;20029;-58
2023/08/10 09:27:28;;;;;;;5.30;1.00;;;;;;;;;;5035074;28;20030;-59
2023/08/10 09:29:58;;;;;;;1.77;1.00;;;;;;;;;;5031262;28;20112;-57
2023/08/10 09:32:25;;;;;;;5.70;1.00;;;;;;;;;;5036384;28;20029;-60
2023/08/10 09:34:54;;;;;;;5.85;1.20;;;;;;;;;;5040714;28;20460;-56
2023/08/10 09:37:20;;;;;;;5.13;1.90;;;;;;;;;;5037427;28;20080;-55
2023/08/10 09:39:46;;;;;;;1.45;1.08;;;;;;;;;;5030029;28;20033;-56
2023/08/10 09:42:12;;;;;;;3.95;1.00;;;;;;;;;;5034116;28;20036;-56
2023/08/10 09:44:45;;;;;;;4.53;1.20;;;;;;;;;;5032631;28;20025;-60
2023/08/10 09:47:12;;;;;;;4.30;1.10;;;;;;;;;;5032622;28;20056;-57
2023/08/10 09:49:40;;;;;;;6.07;1.50;;;;;;;;;;5033649;28;20022;-57
2023/08/10 09:52:07;;;;;;;7.35;1.17;;;;;;;;;;5033234;28;20063;-56
2023/08/10 09:54:33;;;;;;;2.42;1.00;;;;;;;;;;5033790;28;20029;-57
2023/08/10 09:56:59;;;;;;;4.88;1.38;;;;;;;;;;5035411;28;20108;-59
2023/08/10 09:59:25;;;;;;;4.13;1.35;;;;;;;;;;5039225;28;20040;-58
2023/08/10 10:01:53;;;;;;;9.35;1.38;;;;;;;;;;5040303;28;20052;-59
2023/08/10 10:04:19;;;;;;;2.65;1.25;;;;;;;;;;5030686;28;20021;-59
2023/08/10 10:06:47;;;;;;;3.15;1.10;;;;;;;;;;5037393;28;20091;-59
2023/08/10 10:09:13;;;;;;;4.38;1.50;;;;;;;;;;5033353;28;20013;-57
2023/08/10 10:11:39;;;;;;;5.25;1.35;;;;;;;;;;5036685;28;20074;-58
2023/08/10 10:14:06;;;;;;;4.70;1.23;;;;;;;;;;5036092;28;20025;-58
2023/08/10 10:16:32;;;;;;;7.28;1.25;;;;;;;;;;5033046;28;20032;-59
2023/08/10 10:18:58;;;;;;;3.35;1.10;;;;;;;;;;5029257;28;20956;-60
2023/08/10 10:21:24;;;;;;;4.78;1.65;;;;;;;;;;5035385;28;20036;-56
2023/08/10 10:23:55;;;;;;;2.72;1.33;;;;;;;;;;5033977;28;20028;-57
2023/08/10 10:26:21;;;;;;;5.63;2.15;;;;;;;;;;5037486;28;20032;-59
2023/08/10 10:29:07;;;;;;;6.03;1.77;;;;;;;;;;5030848;28;20034;-58
2023/08/10 10:31:33;;;;;;;5.22;1.73;;;;;;;;;;5033951;28;20021;-57
2023/08/10 10:34:02;;;;;;;7.15;1.95;;;;;;;;;;5028822;28;20116;-57
2023/08/10 10:36:28;;;;;;;3.33;1.63;;;;;;;;;;5028829;28;20067;-57
2023/08/10 10:38:55;;;;;;;7.25;2.03;;;;;;;;;;5036345;28;20065;-57
2023/08/10 10:41:31;;;;;;;4.05;2.08;;;;;;;;;;5032494;28;20053;-60
2023/08/10 10:43:59;;;;;;;4.45;2.13;;;;;;;;;;5041421;28;20025;-56
2023/08/10 10:46:34;;;;;;;7.35;3.30;;;;;;;;;;5036225;28;20028;-59
2023/08/10 10:49:01;;;;;;;8.57;4.38;;;;;;;;;;5033167;28;20045;-58
2023/08/10 10:51:29;;;;;;;9.15;4.78;;;;;;;;;;5021778;28;20505;-57
2023/08/10 10:53:56;;;;;;;12.60;5.20;;;;;;;;;;5024868;28;20018;-58
2023/08/10 10:56:22;;;;;;;9.93;4.43;;;;;;;;;;5031723;28;20497;-58
2023/08/10 10:58:49;;;;;;;9.52;4.57;;;;;;;;;;5032792;28;20033;-59
2023/08/10 11:01:21;;;;;;;7.72;3.58;;;;;;;;;;5034658;28;20047;-58
2023/08/10 11:03:54;;;;;;;8.57;3.65;;;;;;;;;;5031285;28;20133;-57
2023/08/10 11:06:20;;;;;;;7.40;3.22;;;;;;;;;;5018373;28;20167;-56
2023/08/10 11:08:59;;;;;;;6.97;3.08;;;;;;;;;;5027008;28;20100;-57
2023/08/10 11:11:25;;;;;;;8.02;3.83;;;;;;;;;;5023869;28;20037;-58
2023/08/10 11:13:52;;;;;;;9.88;3.28;;;;;;;;;;5026088;28;20430;-58
2023/08/10 11:16:18;;;;;;;7.68;2.80;;;;;;;;;;5042905;28;20025;-57
2023/08/10 11:18:47;;;;;;;9.65;3.97;;;;;;;;;;5024405;28;20409;-57
2023/08/10 11:21:14;;;;;;;7.07;3.78;;;;;;;;;;5025357;28;20163;-58
2023/08/10 11:23:40;;;;;;;8.80;3.88;;;;;;;;;;5028826;28;20032;-59
2023/08/10 11:26:06;;;;;;;7.35;3.00;;;;;;;;;;5032197;28;20029;-54
2023/08/10 11:28:32;;;;;;;8.98;3.80;;;;;;;;;;5028251;28;20037;-52
2023/08/10 11:31:05;;;;;;;7.32;3.28;;;;;;;;;;5021051;28;20096;-57
2023/08/10 11:33:31;;;;;;;12.55;3.92;;;;;;;;;;5026096;28;20750;-52
2023/08/10 11:35:58;;;;;;;9.00;3.35;;;;;;;;;;5025465;28;20029;-54
2023/08/10 11:38:25;;;;;;;8.27;3.35;;;;;;;;;;5022066;28;20032;-57
2023/08/10 11:40:51;;;;;;;8.48;3.63;;;;;;;;;;5026879;28;20109;-57
2023/08/10 11:43:21;;;;;;;9.75;3.58;;;;;;;;;;5034677;28;20037;-57
2023/08/10 11:45:48;;;;;;;8.55;4.22;;;;;;;;;;5033625;28;20028;-55
2023/08/10 11:48:16;;;;;;;12.60;4.38;;;;;;;;;;5019976;28;20030;-58
2023/08/10 11:50:43;;;;;;;6.95;3.70;;;;;;;;;;5022157;28;20068;-57
2023/08/10 11:53:15;;;;;;;6.30;2.75;;;;;;;;;;5019261;28;20029;-58
2023/08/10 11:55:45;;;;;;;6.22;3.05;;;;;;;;;;5026194;28;20041;-59
2023/08/10 11:58:13;;;;;;;6.50;2.97;;;;;;;;;;5031557;28;20033;-57
2023/08/10 12:00:41;;;;;;;10.55;4.03;;;;;;;;;;5027755;28;20508;-58
2023/08/10 12:03:11;;;;;;;12.93;4.57;;;;;;;;;;5031081;28;20025;-58
2023/08/10 12:05:37;;;;;;;6.50;3.63;;;;;;;;;;5032831;28;20025;-58
2023/08/10 12:08:08;;;;;;;7.72;3.13;;;12.40;99.90;;;;;;5028216;28;20667;-59
2023/08/10 12:10:36;;;;;;;7.00;3.67;;;26.00;99.00;;;;;;5028498;28;20027;-57
2023/08/10 12:13:02;;;;;;;8.52;2.92;;;;;;;;;;5035277;28;20396;-58
2023/08/10 12:15:31;;;;;;;8.38;3.17;;;;;;;;;;5027529;28;20040;-58
2023/08/10 12:17:57;;;;;;;11.02;3.30;;;;;;;;;;5029096;28;20493;-58
2023/08/10 12:20:23;;;;;;;5.45;2.95;;;;;;;;;;5026093;28;20056;-58
2023/08/10 12:22:49;;;;;;;5.50;3.10;;;;;;;;;;5028601;28;20072;-59
2023/08/10 12:25:15;;;;;;;14.02;3.05;;;;;;;;;;5032326;28;20032;-58
2023/08/10 12:27:41;;;;;;;9.57;2.97;;;;;;;;;;5026960;28;20029;-58
2023/08/10 12:30:08;;;;;;;8.60;3.00;;;;;;;;;;5029554;28;20029;-59
2023/08/10 12:32:34;;;;;;;7.05;3.20;;;;;;;;;;5037487;28;20024;-58
2023/08/10 12:35:01;;;;;;;8.50;2.95;;;;;;;;;;5026003;28;20029;-59
2023/08/10 12:37:27;;;;;;;7.50;3.15;;;;;;;;;;5033345;28;20078;-59
2023/08/10 12:39:54;;;;;;;5.35;2.60;;;;;;;;;;5030467;28;20037;-58
2023/08/10 12:42:20;;;;;;;7.22;2.60;;;;;;;;;;5034638;28;20116;-54
2023/08/10 12:44:46;;;;;;;6.32;2.67;;;;;;;;;;5032637;28;20164;-56
2023/08/10 12:47:12;;;;;;;7.43;2.53;;;;;;;;;;5026311;28;20030;-57
2023/08/10 12:49:38;;;;;;;6.53;2.70;;;;;;;;;;5034578;28;20635;-57
2023/08/10 12:52:04;;;;;;;6.05;2.88;;;;;;;;;;5029047;28;20037;-56
2023/08/10 12:54:30;;;;;;;5.07;2.72;;;;;;;;;;5031801;28;20069;-57
2023/08/10 12:56:56;;;;;;;6.85;3.03;;;;;;;;;;5030845;28;20038;-58
2023/08/10 12:59:22;;;;;;;7.43;3.33;;;;;;;;;;5034717;28;20044;-58
2023/08/10 13:01:51;;;;;;;6.93;2.83;;;;;;;;;;5034186;28;20029;-56
2023/08/10 13:04:17;;;;;;;5.07;2.72;;;;;;;;;;5036537;28;20494;-59
2023/08/10 13:06:43;;;;;;;7.13;3.20;;;;;;;;;;5033010;28;20401;-59
2023/08/10 13:09:09;;;;;;;7.63;2.60;;;;;;;;;;5034208;28;21179;-56
2023/08/10 13:11:36;;;;;;;6.63;2.90;;;;;;;;;;5031425;28;20360;-55
2023/08/10 13:14:02;;;;;;;12.10;3.30;;;;;;;;;;5038058;28;20025;-58
2023/08/10 13:16:28;;;;;;;8.30;2.70;;;;;;;;;;5027427;28;20021;-60
2023/08/10 13:18:54;;;;;;;6.05;2.90;;;;;;;;;;5021872;28;20370;-59
2023/08/10 13:21:20;;;;;;;7.65;2.67;;;;;;;;;;5024273;28;20139;-56
2023/08/10 13:23:46;;;;;;;5.57;2.88;;;;;;;;;;5036013;28;20036;-58
2023/08/10 13:26:12;;;;;;;4.45;2.65;;;;;;;;;;5030176;28;20025;-58
2023/08/10 13:28:38;;;;;;;3.53;2.50;;;;;;;;;;5037189;28;20155;-59
2023/08/10 13:31:03;;;;;;;6.43;2.75;;;;;;;;;;5036216;28;20079;-56
2023/08/10 13:33:31;;;;;;;9.20;2.58;;;;;;;;;;5034972;28;20033;-57
2023/08/10 13:35:57;;;;;;;11.60;2.60;;;;;;;;;;5035073;28;20033;-58
2023/08/10 13:38:23;;;;;;;7.93;1.90;;;;;;;;;;5030665;28;20036;-56
2023/08/10 13:40:49;;;;;;;9.63;3.00;;;;;;;;;;5036881;28;20029;-58
2023/08/10 13:43:15;;;;;;;5.82;2.10;;;;;;;;;;5034571;28;20033;-57
2023/08/10 13:45:41;;;;;;;5.43;2.47;;;;;;;;;;5033565;28;20087;-53
2023/08/10 13:48:09;;;;;;;3.65;1.90;;;;;;;;;;5030792;28;20096;-60
2023/08/10 13:50:35;;;;;;;3.63;1.85;;;;;;;;;;5031084;28;20021;-57
2023/08/10 13:53:01;;;;;;;10.00;2.40;;;;;;;;;;5032227;28;20052;-56
2023/08/10 13:55:28;;;;;;;14.38;2.42;;;;;;;;;;5030935;28;20104;-57
2023/08/10 13:57:54;;;;;;;3.85;2.10;;;;;;;;;;5027275;28;20018;-56
2023/08/10 14:00:20;;;;;;;6.65;2.30;;;;;;;;;;5032800;28;20044;-57
2023/08/10 14:02:46;;;;;;;5.10;2.40;;;;;;;;;;5030787;28;20025;-59